sensor_id;sensor_type;location;lat;lon;timestamp;temperature;humidity
41694;DHT22;27377;50.666;9.150;2022-11-23T00:01:25;6.90;99.90
41694;DHT22;27377;50.666;9.150;2022-11-23T00:03:53;6.80;99.90
41694;DHT22;27377;50.666;9.150;2022-11-23T00:06:19;6.80;99.90
41694;DHT22;27377;50.666;9.150;2022-11-23T00:08:48;6.80;99.90
41694;DHT22;27377;50.666;9.150;2022-11-23T00:11:14;6.80;99.90
41694;DHT22;27377;50.666;9.150;2022-11-23T00:13:40;6.80;99.90
41694;DHT22;27377;50.666;9.150;2022-11-23T00:16:19;6.80;99.90
41694;DHT22;27377;50.666;9.150;2022-11-23T00:18:45;6.80;99.90
41694;DHT22;27377;50.666;9.150;2022-11-23T00:21:16;6.80;99.90
41694;DHT22;27377;50.666;9.150;2022-11-23T00:23:42;6.80;99.90
41694;DHT22;27377;50.666;9.150;2022-11-23T00:26:08;6.80;99.90
41694;DHT22;27377;50.666;9.150;2022-11-23T00:28:34;6.80;99.90
41694;DHT22;27377;50.666;9.150;2022-11-23T00:31:03;6.80;99.90
41694;DHT22;27377;50.666;9.150;2022-11-23T00:33:29;6.80;99.90
41694;DHT22;27377;50.666;9.150;2022-11-23T00:36:03;6.80;99.90
41694;DHT22;27377;50.666;9.150;2022-11-23T00:38:28;6.80;99.90
41694;DHT22;27377;50.666;9.150;2022-11-23T00:41:05;6.80;99.90
41694;DHT22;27377;50.666;9.150;2022-11-23T00:43:31;6.80;99.90
41694;DHT22;27377;50.666;9.150;2022-11-23T00:48:37;6.80;99.90
41694;DHT22;27377;50.666;9.150;2022-11-23T00:51:04;6.80;99.90
41694;DHT22;27377;50.666;9.150;2022-11-23T00:53:30;6.80;99.90
41694;DHT22;27377;50.666;9.150;2022-11-23T00:55:56;6.80;99.90
41694;DHT22;27377;50.666;9.150;2022-11-23T00:58:22;6.80;99.90
41694;DHT22;27377;50.666;9.150;2022-11-23T01:00:48;6.80;99.90
41694;DHT22;27377;50.666;9.150;2022-11-23T01:03:15;6.80;99.90
41694;DHT22;27377;50.666;9.150;2022-11-23T01:05:40;6.80;99.90
41694;DHT22;27377;50.666;9.150;2022-11-23T01:08:07;6.90;99.90
41694;DHT22;27377;50.666;9.150;2022-11-23T01:10:32;6.80;99.90
41694;DHT22;27377;50.666;9.150;2022-11-23T01:12:58;6.80;99.90
41694;DHT22;27377;50.666;9.150;2022-11-23T01:15:25;6.80;99.90
41694;DHT22;27377;50.666;9.150;2022-11-23T01:17:51;6.80;99.90
41694;DHT22;27377;50.666;9.150;2022-11-23T01:20:16;6.80;99.90
41694;DHT22;27377;50.666;9.150;2022-11-23T01:22:42;6.80;99.90
41694;DHT22;27377;50.666;9.150;2022-11-23T01:25:08;6.80;99.90
41694;DHT22;27377;50.666;9.150;2022-11-23T01:27:33;6.80;99.90
41694;DHT22;27377;50.666;9.150;2022-11-23T01:29:59;6.80;99.90
41694;DHT22;27377;50.666;9.150;2022-11-23T01:32:24;6.80;99.90
41694;DHT22;27377;50.666;9.150;2022-11-23T01:34:50;6.80;99.90
41694;DHT22;27377;50.666;9.150;2022-11-23T01:37:15;6.80;99.90
41694;DHT22;27377;50.666;9.150;2022-11-23T01:39:41;6.80;99.90
41694;DHT22;27377;50.666;9.150;2022-11-23T01:42:07;6.80;99.90
41694;DHT22;27377;50.666;9.150;2022-11-23T01:44:35;6.80;99.90
41694;DHT22;27377;50.666;9.150;2022-11-23T01:47:09;6.80;99.90
41694;DHT22;27377;50.666;9.150;2022-11-23T01:49:48;6.80;99.90
41694;DHT22;27377;50.666;9.150;2022-11-23T01:52:16;6.80;99.90
41694;DHT22;27377;50.666;9.150;2022-11-23T01:54:48;6.80;99.90
41694;DHT22;27377;50.666;9.150;2022-11-23T01:57:20;6.80;99.90
41694;DHT22;27377;50.666;9.150;2022-11-23T01:59:47;6.80;99.90
41694;DHT22;27377;50.666;9.150;2022-11-23T02:02:14;6.80;99.90
41694;DHT22;27377;50.666;9.150;2022-11-23T02:04:42;6.80;99.90
41694;DHT22;27377;50.666;9.150;2022-11-23T02:07:09;6.80;99.90
41694;DHT22;27377;50.666;9.150;2022-11-23T02:09:36;6.80;99.90
41694;DHT22;27377;50.666;9.150;2022-11-23T02:12:02;6.80;99.90
41694;DHT22;27377;50.666;9.150;2022-11-23T02:14:28;6.80;99.90
41694;DHT22;27377;50.666;9.150;2022-11-23T02:16:59;6.80;99.90
41694;DHT22;27377;50.666;9.150;2022-11-23T02:28:12;6.80;99.90
41694;DHT22;27377;50.666;9.150;2022-11-23T02:30:38;6.80;99.90
41694;DHT22;27377;50.666;9.150;2022-11-23T02:33:05;6.80;99.90
41694;DHT22;27377;50.666;9.150;2022-11-23T02:35:32;6.80;99.90
41694;DHT22;27377;50.666;9.150;2022-11-23T02:37:59;6.80;99.90
41694;DHT22;27377;50.666;9.150;2022-11-23T02:40:33;6.90;99.90
41694;DHT22;27377;50.666;9.150;2022-11-23T02:43:00;6.80;99.90
41694;DHT22;27377;50.666;9.150;2022-11-23T02:45:42;6.80;99.90
41694;DHT22;27377;50.666;9.150;2022-11-23T02:48:10;6.80;99.90
41694;DHT22;27377;50.666;9.150;2022-11-23T02:50:35;6.80;99.90
41694;DHT22;27377;50.666;9.150;2022-11-23T02:53:01;6.80;99.90
41694;DHT22;27377;50.666;9.150;2022-11-23T02:55:27;6.80;99.90
41694;DHT22;27377;50.666;9.150;2022-11-23T02:57:52;6.80;99.90
41694;DHT22;27377;50.666;9.150;2022-11-23T03:00:18;6.80;99.90
41694;DHT22;27377;50.666;9.150;2022-11-23T03:02:44;6.80;99.90
41694;DHT22;27377;50.666;9.150;2022-11-23T03:05:09;6.80;99.90
41694;DHT22;27377;50.666;9.150;2022-11-23T03:07:35;6.80;99.90
41694;DHT22;27377;50.666;9.150;2022-11-23T03:10:01;6.80;99.90
41694;DHT22;27377;50.666;9.150;2022-11-23T03:12:26;6.80;99.90
41694;DHT22;27377;50.666;9.150;2022-11-23T03:14:52;6.80;99.90
41694;DHT22;27377;50.666;9.150;2022-11-23T03:17:17;6.80;99.90
41694;DHT22;27377;50.666;9.150;2022-11-23T03:19:43;6.80;99.90
41694;DHT22;27377;50.666;9.150;2022-11-23T03:22:09;6.80;99.90
41694;DHT22;27377;50.666;9.150;2022-11-23T03:24:38;6.80;99.90
41694;DHT22;27377;50.666;9.150;2022-11-23T03:27:04;6.80;99.90
41694;DHT22;27377;50.666;9.150;2022-11-23T03:29:29;6.80;99.90
41694;DHT22;27377;50.666;9.150;2022-11-23T03:31:55;6.80;99.90
41694;DHT22;27377;50.666;9.150;2022-11-23T03:34:23;6.80;99.90
41694;DHT22;27377;50.666;9.150;2022-11-23T03:36:49;6.80;99.90
41694;DHT22;27377;50.666;9.150;2022-11-23T03:39:14;6.80;99.90
41694;DHT22;27377;50.666;9.150;2022-11-23T03:41:40;6.80;99.90
41694;DHT22;27377;50.666;9.150;2022-11-23T03:44:08;6.80;99.90
41694;DHT22;27377;50.666;9.150;2022-11-23T03:46:34;6.80;99.90
41694;DHT22;27377;50.666;9.150;2022-11-23T03:49:00;6.80;99.90
41694;DHT22;27377;50.666;9.150;2022-11-23T03:51:25;6.80;99.90
41694;DHT22;27377;50.666;9.150;2022-11-23T03:53:51;6.80;99.90
41694;DHT22;27377;50.666;9.150;2022-11-23T03:56:17;6.80;99.90
41694;DHT22;27377;50.666;9.150;2022-11-23T03:58:44;6.80;99.90
41694;DHT22;27377;50.666;9.150;2022-11-23T04:01:10;6.80;99.90
41694;DHT22;27377;50.666;9.150;2022-11-23T04:03:35;6.80;99.90
41694;DHT22;27377;50.666;9.150;2022-11-23T04:06:06;6.80;99.90
41694;DHT22;27377;50.666;9.150;2022-11-23T04:08:32;6.80;99.90
41694;DHT22;27377;50.666;9.150;2022-11-23T04:10:58;6.80;99.90
41694;DHT22;27377;50.666;9.150;2022-11-23T04:13:23;6.80;99.90
41694;DHT22;27377;50.666;9.150;2022-11-23T04:15:49;6.80;99.90
41694;DHT22;27377;50.666;9.150;2022-11-23T04:18:15;6.80;99.90
41694;DHT22;27377;50.666;9.150;2022-11-23T04:20:41;6.80;99.90
41694;DHT22;27377;50.666;9.150;2022-11-23T04:23:06;6.80;99.90
41694;DHT22;27377;50.666;9.150;2022-11-23T04:25:32;6.80;99.90
41694;DHT22;27377;50.666;9.150;2022-11-23T04:27:57;6.80;99.90
41694;DHT22;27377;50.666;9.150;2022-11-23T04:30:23;6.80;99.90
41694;DHT22;27377;50.666;9.150;2022-11-23T04:32:48;6.80;99.90
41694;DHT22;27377;50.666;9.150;2022-11-23T04:35:14;6.80;99.90
41694;DHT22;27377;50.666;9.150;2022-11-23T04:37:39;6.80;99.90
41694;DHT22;27377;50.666;9.150;2022-11-23T04:40:06;6.80;99.90
41694;DHT22;27377;50.666;9.150;2022-11-23T04:42:32;6.80;99.90
41694;DHT22;27377;50.666;9.150;2022-11-23T04:44:57;6.80;99.90
41694;DHT22;27377;50.666;9.150;2022-11-23T04:47:23;6.80;99.90
41694;DHT22;27377;50.666;9.150;2022-11-23T04:49:49;6.80;99.90
41694;DHT22;27377;50.666;9.150;2022-11-23T04:52:15;6.80;99.90
41694;DHT22;27377;50.666;9.150;2022-11-23T04:54:41;6.80;99.90
41694;DHT22;27377;50.666;9.150;2022-11-23T04:57:07;6.80;99.90
41694;DHT22;27377;50.666;9.150;2022-11-23T04:59:33;6.80;99.90
41694;DHT22;27377;50.666;9.150;2022-11-23T05:01:59;6.80;99.90
41694;DHT22;27377;50.666;9.150;2022-11-23T05:04:24;6.80;99.90
41694;DHT22;27377;50.666;9.150;2022-11-23T05:06:50;6.80;99.90
41694;DHT22;27377;50.666;9.150;2022-11-23T05:09:15;6.80;99.90
41694;DHT22;27377;50.666;9.150;2022-11-23T05:11:41;6.80;99.90
41694;DHT22;27377;50.666;9.150;2022-11-23T05:14:07;6.80;99.90
41694;DHT22;27377;50.666;9.150;2022-11-23T05:16:32;6.80;99.90
41694;DHT22;27377;50.666;9.150;2022-11-23T05:18:58;6.80;99.90
41694;DHT22;27377;50.666;9.150;2022-11-23T05:21:24;6.80;99.90
41694;DHT22;27377;50.666;9.150;2022-11-23T05:23:49;6.80;99.90
41694;DHT22;27377;50.666;9.150;2022-11-23T05:26:15;6.80;99.90
41694;DHT22;27377;50.666;9.150;2022-11-23T05:28:40;6.80;99.90
41694;DHT22;27377;50.666;9.150;2022-11-23T05:31:06;6.80;99.90
41694;DHT22;27377;50.666;9.150;2022-11-23T05:33:32;6.80;99.90
41694;DHT22;27377;50.666;9.150;2022-11-23T05:35:57;6.80;99.90
41694;DHT22;27377;50.666;9.150;2022-11-23T05:38:23;6.80;99.90
41694;DHT22;27377;50.666;9.150;2022-11-23T05:40:48;6.80;99.90
41694;DHT22;27377;50.666;9.150;2022-11-23T05:43:14;6.80;99.90
41694;DHT22;27377;50.666;9.150;2022-11-23T05:45:39;6.80;99.90
41694;DHT22;27377;50.666;9.150;2022-11-23T05:48:05;6.80;99.90
41694;DHT22;27377;50.666;9.150;2022-11-23T05:50:31;6.80;99.90
41694;DHT22;27377;50.666;9.150;2022-11-23T05:52:57;6.80;99.90
41694;DHT22;27377;50.666;9.150;2022-11-23T05:55:24;6.80;99.90
41694;DHT22;27377;50.666;9.150;2022-11-23T05:57:50;6.80;99.90
41694;DHT22;27377;50.666;9.150;2022-11-23T06:00:16;6.80;99.90
41694;DHT22;27377;50.666;9.150;2022-11-23T06:02:42;6.80;99.90
41694;DHT22;27377;50.666;9.150;2022-11-23T06:05:08;6.80;99.90
41694;DHT22;27377;50.666;9.150;2022-11-23T06:07:35;6.80;99.90
41694;DHT22;27377;50.666;9.150;2022-11-23T06:10:04;6.80;99.90
41694;DHT22;27377;50.666;9.150;2022-11-23T06:12:30;6.80;99.90
41694;DHT22;27377;50.666;9.150;2022-11-23T06:14:56;6.80;99.90
41694;DHT22;27377;50.666;9.150;2022-11-23T06:17:22;6.80;99.90
41694;DHT22;27377;50.666;9.150;2022-11-23T06:19:50;6.80;99.90
41694;DHT22;27377;50.666;9.150;2022-11-23T06:22:19;6.80;99.90
41694;DHT22;27377;50.666;9.150;2022-11-23T06:24:44;6.80;99.90
41694;DHT22;27377;50.666;9.150;2022-11-23T06:27:10;6.80;99.90
41694;DHT22;27377;50.666;9.150;2022-11-23T06:29:38;6.80;99.90
41694;DHT22;27377;50.666;9.150;2022-11-23T06:32:04;6.80;99.90
41694;DHT22;27377;50.666;9.150;2022-11-23T06:34:29;6.80;99.90
41694;DHT22;27377;50.666;9.150;2022-11-23T06:36:55;6.80;99.90
41694;DHT22;27377;50.666;9.150;2022-11-23T06:39:20;6.80;99.90
41694;DHT22;27377;50.666;9.150;2022-11-23T06:41:46;6.80;99.90
41694;DHT22;27377;50.666;9.150;2022-11-23T06:44:12;6.80;99.90
41694;DHT22;27377;50.666;9.150;2022-11-23T06:46:38;6.80;99.90
41694;DHT22;27377;50.666;9.150;2022-11-23T06:49:07;6.80;99.90
41694;DHT22;27377;50.666;9.150;2022-11-23T06:51:32;6.80;99.90
41694;DHT22;27377;50.666;9.150;2022-11-23T06:54:01;6.80;99.90
41694;DHT22;27377;50.666;9.150;2022-11-23T06:56:26;6.80;99.90
41694;DHT22;27377;50.666;9.150;2022-11-23T06:58:58;6.80;99.90
41694;DHT22;27377;50.666;9.150;2022-11-23T07:01:27;6.80;99.90
41694;DHT22;27377;50.666;9.150;2022-11-23T07:03:53;6.80;99.90
41694;DHT22;27377;50.666;9.150;2022-11-23T07:06:18;6.80;99.90
41694;DHT22;27377;50.666;9.150;2022-11-23T07:08:47;6.80;99.90
41694;DHT22;27377;50.666;9.150;2022-11-23T07:11:14;6.70;99.90
41694;DHT22;27377;50.666;9.150;2022-11-23T07:13:39;6.80;99.90
41694;DHT22;27377;50.666;9.150;2022-11-23T07:16:08;6.80;99.90
41694;DHT22;27377;50.666;9.150;2022-11-23T07:18:37;6.80;99.90
41694;DHT22;27377;50.666;9.150;2022-11-23T07:21:02;6.80;99.90
41694;DHT22;27377;50.666;9.150;2022-11-23T07:23:31;6.80;99.90
41694;DHT22;27377;50.666;9.150;2022-11-23T07:26:01;6.80;99.90
41694;DHT22;27377;50.666;9.150;2022-11-23T07:28:27;6.80;99.90
41694;DHT22;27377;50.666;9.150;2022-11-23T07:30:55;6.70;99.90
41694;DHT22;27377;50.666;9.150;2022-11-23T07:33:21;6.80;99.90
41694;DHT22;27377;50.666;9.150;2022-11-23T07:35:47;6.70;99.90
41694;DHT22;27377;50.666;9.150;2022-11-23T07:38:13;6.70;99.90
41694;DHT22;27377;50.666;9.150;2022-11-23T07:40:38;6.70;99.90
41694;DHT22;27377;50.666;9.150;2022-11-23T07:43:05;6.80;99.90
41694;DHT22;27377;50.666;9.150;2022-11-23T07:45:31;6.80;99.90
41694;DHT22;27377;50.666;9.150;2022-11-23T07:48:02;6.80;99.90
41694;DHT22;27377;50.666;9.150;2022-11-23T07:50:28;6.80;99.90
41694;DHT22;27377;50.666;9.150;2022-11-23T07:52:54;6.80;99.90
41694;DHT22;27377;50.666;9.150;2022-11-23T07:55:20;6.80;99.90
41694;DHT22;27377;50.666;9.150;2022-11-23T07:57:46;6.80;99.90
41694;DHT22;27377;50.666;9.150;2022-11-23T08:00:11;6.80;99.90
41694;DHT22;27377;50.666;9.150;2022-11-23T08:02:38;6.80;99.90
41694;DHT22;27377;50.666;9.150;2022-11-23T08:05:05;6.90;99.90
41694;DHT22;27377;50.666;9.150;2022-11-23T08:07:31;6.80;99.90
41694;DHT22;27377;50.666;9.150;2022-11-23T08:09:56;6.80;99.90
41694;DHT22;27377;50.666;9.150;2022-11-23T08:12:22;6.80;99.90
41694;DHT22;27377;50.666;9.150;2022-11-23T08:14:48;6.90;99.90
41694;DHT22;27377;50.666;9.150;2022-11-23T08:17:13;6.90;99.90
41694;DHT22;27377;50.666;9.150;2022-11-23T08:19:39;6.90;99.90
41694;DHT22;27377;50.666;9.150;2022-11-23T08:22:04;6.90;99.90
41694;DHT22;27377;50.666;9.150;2022-11-23T08:24:30;6.90;99.90
41694;DHT22;27377;50.666;9.150;2022-11-23T08:26:55;6.90;99.90
41694;DHT22;27377;50.666;9.150;2022-11-23T08:29:21;6.90;99.90
41694;DHT22;27377;50.666;9.150;2022-11-23T08:31:47;6.90;99.90
41694;DHT22;27377;50.666;9.150;2022-11-23T08:34:12;6.90;99.90
41694;DHT22;27377;50.666;9.150;2022-11-23T08:36:38;6.90;99.90
41694;DHT22;27377;50.666;9.150;2022-11-23T08:39:04;6.90;99.90
41694;DHT22;27377;50.666;9.150;2022-11-23T08:41:30;6.90;99.90
41694;DHT22;27377;50.666;9.150;2022-11-23T08:43:55;7.00;99.90
41694;DHT22;27377;50.666;9.150;2022-11-23T08:46:21;6.90;99.90
41694;DHT22;27377;50.666;9.150;2022-11-23T08:48:47;7.00;99.90
41694;DHT22;27377;50.666;9.150;2022-11-23T08:51:12;7.00;99.90
41694;DHT22;27377;50.666;9.150;2022-11-23T08:53:38;7.00;99.90
41694;DHT22;27377;50.666;9.150;2022-11-23T08:56:05;7.00;99.90
41694;DHT22;27377;50.666;9.150;2022-11-23T08:58:32;7.00;99.90
41694;DHT22;27377;50.666;9.150;2022-11-23T09:00:58;7.00;99.90
41694;DHT22;27377;50.666;9.150;2022-11-23T09:03:23;7.10;99.90
41694;DHT22;27377;50.666;9.150;2022-11-23T09:05:49;7.10;99.90
41694;DHT22;27377;50.666;9.150;2022-11-23T09:08:16;7.10;99.90
41694;DHT22;27377;50.666;9.150;2022-11-23T09:10:41;7.10;99.90
41694;DHT22;27377;50.666;9.150;2022-11-23T09:13:07;7.10;99.90
41694;DHT22;27377;50.666;9.150;2022-11-23T09:15:33;7.10;99.90
41694;DHT22;27377;50.666;9.150;2022-11-23T09:17:58;7.10;99.90
41694;DHT22;27377;50.666;9.150;2022-11-23T09:20:24;7.10;99.90
41694;DHT22;27377;50.666;9.150;2022-11-23T09:22:54;7.20;99.90
41694;DHT22;27377;50.666;9.150;2022-11-23T09:25:20;7.20;99.90
41694;DHT22;27377;50.666;9.150;2022-11-23T09:27:46;7.20;99.90
41694;DHT22;27377;50.666;9.150;2022-11-23T09:30:12;7.20;99.90
41694;DHT22;27377;50.666;9.150;2022-11-23T09:32:38;7.20;99.90
41694;DHT22;27377;50.666;9.150;2022-11-23T09:35:04;7.20;99.90
41694;DHT22;27377;50.666;9.150;2022-11-23T09:37:30;7.20;99.90
41694;DHT22;27377;50.666;9.150;2022-11-23T09:39:55;7.20;99.90
41694;DHT22;27377;50.666;9.150;2022-11-23T09:42:51;7.20;99.90
41694;DHT22;27377;50.666;9.150;2022-11-23T09:53:04;7.20;99.90
41694;DHT22;27377;50.666;9.150;2022-11-23T09:55:43;7.30;99.90
41694;DHT22;27377;50.666;9.150;2022-11-23T09:58:12;7.30;99.90
41694;DHT22;27377;50.666;9.150;2022-11-23T10:01:06;7.30;99.90
41694;DHT22;27377;50.666;9.150;2022-11-23T10:03:35;7.30;99.90
41694;DHT22;27377;50.666;9.150;2022-11-23T10:06:03;7.30;99.90
41694;DHT22;27377;50.666;9.150;2022-11-23T10:08:40;7.30;99.90
41694;DHT22;27377;50.666;9.150;2022-11-23T10:16:48;7.30;99.90
41694;DHT22;27377;50.666;9.150;2022-11-23T10:19:53;7.30;99.90
41694;DHT22;27377;50.666;9.150;2022-11-23T10:24:54;7.40;99.90
41694;DHT22;27377;50.666;9.150;2022-11-23T10:27:23;7.40;99.90
41694;DHT22;27377;50.666;9.150;2022-11-23T10:29:49;7.40;99.90
41694;DHT22;27377;50.666;9.150;2022-11-23T10:32:36;7.40;99.90
41694;DHT22;27377;50.666;9.150;2022-11-23T10:35:17;7.40;99.90
41694;DHT22;27377;50.666;9.150;2022-11-23T10:37:45;7.40;99.90
41694;DHT22;27377;50.666;9.150;2022-11-23T10:40:23;7.40;99.90
41694;DHT22;27377;50.666;9.150;2022-11-23T10:42:56;7.50;99.90
41694;DHT22;27377;50.666;9.150;2022-11-23T10:45:26;7.50;99.90
41694;DHT22;27377;50.666;9.150;2022-11-23T10:47:57;7.50;99.90
41694;DHT22;27377;50.666;9.150;2022-11-23T10:55:52;7.50;99.90
41694;DHT22;27377;50.666;9.150;2022-11-23T10:58:40;7.50;99.90
41694;DHT22;27377;50.666;9.150;2022-11-23T11:01:12;7.50;99.90
41694;DHT22;27377;50.666;9.150;2022-11-23T11:03:38;7.50;99.90
41694;DHT22;27377;50.666;9.150;2022-11-23T11:06:04;7.50;99.90
41694;DHT22;27377;50.666;9.150;2022-11-23T11:08:32;7.50;99.90
41694;DHT22;27377;50.666;9.150;2022-11-23T11:11:02;7.50;99.90
41694;DHT22;27377;50.666;9.150;2022-11-23T11:13:42;7.50;99.90
41694;DHT22;27377;50.666;9.150;2022-11-23T11:16:25;7.50;99.90
41694;DHT22;27377;50.666;9.150;2022-11-23T11:18:52;7.60;99.90
41694;DHT22;27377;50.666;9.150;2022-11-23T11:21:22;7.60;99.90
41694;DHT22;27377;50.666;9.150;2022-11-23T11:23:52;7.60;99.90
41694;DHT22;27377;50.666;9.150;2022-11-23T11:26:23;7.60;99.90
41694;DHT22;27377;50.666;9.150;2022-11-23T11:28:50;7.60;99.90
41694;DHT22;27377;50.666;9.150;2022-11-23T11:31:37;7.60;99.90
41694;DHT22;27377;50.666;9.150;2022-11-23T11:34:10;7.60;99.90
41694;DHT22;27377;50.666;9.150;2022-11-23T11:39:32;7.70;99.90
41694;DHT22;27377;50.666;9.150;2022-11-23T11:42:03;7.70;99.90
41694;DHT22;27377;50.666;9.150;2022-11-23T11:44:31;7.80;99.90
41694;DHT22;27377;50.666;9.150;2022-11-23T11:47:05;7.80;99.90
41694;DHT22;27377;50.666;9.150;2022-11-23T11:49:46;7.80;99.90
41694;DHT22;27377;50.666;9.150;2022-11-23T11:52:17;7.80;99.90
41694;DHT22;27377;50.666;9.150;2022-11-23T11:55:01;7.80;99.90
41694;DHT22;27377;50.666;9.150;2022-11-23T11:57:45;7.80;99.90
41694;DHT22;27377;50.666;9.150;2022-11-23T12:00:19;7.80;99.90
41694;DHT22;27377;50.666;9.150;2022-11-23T12:05:48;7.90;99.90
41694;DHT22;27377;50.666;9.150;2022-11-23T12:08:33;7.80;99.90
41694;DHT22;27377;50.666;9.150;2022-11-23T12:11:00;7.90;99.90
41694;DHT22;27377;50.666;9.150;2022-11-23T12:13:35;7.90;99.90
41694;DHT22;27377;50.666;9.150;2022-11-23T12:16:33;7.90;99.90
41694;DHT22;27377;50.666;9.150;2022-11-23T12:19:26;7.90;99.90
41694;DHT22;27377;50.666;9.150;2022-11-23T12:25:03;7.80;99.90
41694;DHT22;27377;50.666;9.150;2022-11-23T12:28:09;7.80;99.90
41694;DHT22;27377;50.666;9.150;2022-11-23T12:30:50;7.90;99.90
41694;DHT22;27377;50.666;9.150;2022-11-23T12:47:49;8.00;99.90
41694;DHT22;27377;50.666;9.150;2022-11-23T12:50:37;8.00;99.90
41694;DHT22;27377;50.666;9.150;2022-11-23T12:53:07;8.00;99.90
41694;DHT22;27377;50.666;9.150;2022-11-23T12:55:58;8.10;99.90
41694;DHT22;27377;50.666;9.150;2022-11-23T12:58:27;8.10;99.90
41694;DHT22;27377;50.666;9.150;2022-11-23T13:01:10;8.10;99.90
41694;DHT22;27377;50.666;9.150;2022-11-23T13:06:44;8.10;99.90
41694;DHT22;27377;50.666;9.150;2022-11-23T13:09:35;8.10;99.90
41694;DHT22;27377;50.666;9.150;2022-11-23T13:22:34;8.10;99.90
41694;DHT22;27377;50.666;9.150;2022-11-23T13:40:42;8.20;99.90
41694;DHT22;27377;50.666;9.150;2022-11-23T13:43:16;8.20;99.90
41694;DHT22;27377;50.666;9.150;2022-11-23T13:45:43;8.20;99.90
41694;DHT22;27377;50.666;9.150;2022-11-23T13:53:22;8.20;99.90
41694;DHT22;27377;50.666;9.150;2022-11-23T13:55:52;8.20;99.90
41694;DHT22;27377;50.666;9.150;2022-11-23T14:00:55;8.30;99.90
41694;DHT22;27377;50.666;9.150;2022-11-23T14:03:44;8.30;99.90
41694;DHT22;27377;50.666;9.150;2022-11-23T14:09:26;8.30;99.90
41694;DHT22;27377;50.666;9.150;2022-11-23T14:12:07;8.30;99.90
41694;DHT22;27377;50.666;9.150;2022-11-23T14:14:47;8.30;99.90
41694;DHT22;27377;50.666;9.150;2022-11-23T14:28:53;8.30;99.90
41694;DHT22;27377;50.666;9.150;2022-11-23T14:37:24;8.30;99.90
41694;DHT22;27377;50.666;9.150;2022-11-23T14:40:09;8.30;99.90
41694;DHT22;27377;50.666;9.150;2022-11-23T14:42:44;8.30;99.90
41694;DHT22;27377;50.666;9.150;2022-11-23T14:45:17;8.30;99.90
41694;DHT22;27377;50.666;9.150;2022-11-23T14:47:47;8.20;99.90
41694;DHT22;27377;50.666;9.150;2022-11-23T14:52:50;8.20;99.90
41694;DHT22;27377;50.666;9.150;2022-11-23T14:55:23;8.20;99.90
41694;DHT22;27377;50.666;9.150;2022-11-23T14:57:57;8.20;99.90
41694;DHT22;27377;50.666;9.150;2022-11-23T15:00:36;8.10;99.90
41694;DHT22;27377;50.666;9.150;2022-11-23T15:03:16;8.10;99.90
41694;DHT22;27377;50.666;9.150;2022-11-23T15:05:46;8.10;99.90
41694;DHT22;27377;50.666;9.150;2022-11-23T15:10:58;8.00;99.90
41694;DHT22;27377;50.666;9.150;2022-11-23T15:13:28;7.90;99.90
41694;DHT22;27377;50.666;9.150;2022-11-23T15:15:55;7.90;99.90
41694;DHT22;27377;50.666;9.150;2022-11-23T15:18:34;7.80;99.90
41694;DHT22;27377;50.666;9.150;2022-11-23T15:23:37;7.70;99.90
41694;DHT22;27377;50.666;9.150;2022-11-23T15:26:23;7.70;99.90
41694;DHT22;27377;50.666;9.150;2022-11-23T15:28:50;7.60;99.90
41694;DHT22;27377;50.666;9.150;2022-11-23T15:31:48;7.50;99.90
41694;DHT22;27377;50.666;9.150;2022-11-23T15:34:15;7.40;99.90
41694;DHT22;27377;50.666;9.150;2022-11-23T15:36:42;7.30;99.90
41694;DHT22;27377;50.666;9.150;2022-11-23T15:39:16;7.30;99.90
41694;DHT22;27377;50.666;9.150;2022-11-23T15:41:43;7.10;99.90
41694;DHT22;27377;50.666;9.150;2022-11-23T15:44:16;7.00;99.90
41694;DHT22;27377;50.666;9.150;2022-11-23T15:46:46;7.00;99.90
41694;DHT22;27377;50.666;9.150;2022-11-23T15:49:14;6.90;99.90
41694;DHT22;27377;50.666;9.150;2022-11-23T15:51:42;6.80;99.90
41694;DHT22;27377;50.666;9.150;2022-11-23T15:54:20;6.80;99.90
41694;DHT22;27377;50.666;9.150;2022-11-23T15:56:48;6.70;99.90
41694;DHT22;27377;50.666;9.150;2022-11-23T15:59:39;6.70;99.90
41694;DHT22;27377;50.666;9.150;2022-11-23T16:02:25;6.50;99.90
41694;DHT22;27377;50.666;9.150;2022-11-23T16:10:23;6.20;99.90
41694;DHT22;27377;50.666;9.150;2022-11-23T16:13:31;6.10;99.90
41694;DHT22;27377;50.666;9.150;2022-11-23T16:16:11;6.00;99.90
41694;DHT22;27377;50.666;9.150;2022-11-23T16:18:43;5.90;99.90
41694;DHT22;27377;50.666;9.150;2022-11-23T16:21:17;5.90;99.90
41694;DHT22;27377;50.666;9.150;2022-11-23T16:23:54;5.80;99.90
41694;DHT22;27377;50.666;9.150;2022-11-23T16:26:31;5.70;99.90
41694;DHT22;27377;50.666;9.150;2022-11-23T16:28:57;5.60;99.90
41694;DHT22;27377;50.666;9.150;2022-11-23T16:31:38;5.60;99.90
41694;DHT22;27377;50.666;9.150;2022-11-23T16:34:17;5.50;99.90
41694;DHT22;27377;50.666;9.150;2022-11-23T16:36:43;5.50;99.90
41694;DHT22;27377;50.666;9.150;2022-11-23T16:39:08;5.40;99.90
41694;DHT22;27377;50.666;9.150;2022-11-23T16:41:34;5.30;99.90
41694;DHT22;27377;50.666;9.150;2022-11-23T16:44:00;5.30;99.90
41694;DHT22;27377;50.666;9.150;2022-11-23T16:46:26;5.30;99.90
41694;DHT22;27377;50.666;9.150;2022-11-23T16:48:51;5.30;99.90
41694;DHT22;27377;50.666;9.150;2022-11-23T16:51:19;5.30;99.90
41694;DHT22;27377;50.666;9.150;2022-11-23T16:53:46;5.20;99.90
41694;DHT22;27377;50.666;9.150;2022-11-23T16:56:21;5.20;99.90
41694;DHT22;27377;50.666;9.150;2022-11-23T16:58:47;5.20;99.90
41694;DHT22;27377;50.666;9.150;2022-11-23T17:01:19;5.20;99.90
41694;DHT22;27377;50.666;9.150;2022-11-23T17:03:45;5.10;99.90
41694;DHT22;27377;50.666;9.150;2022-11-23T17:06:14;5.10;99.90
41694;DHT22;27377;50.666;9.150;2022-11-23T17:08:42;5.10;99.90
41694;DHT22;27377;50.666;9.150;2022-11-23T17:11:15;5.00;99.90
41694;DHT22;27377;50.666;9.150;2022-11-23T17:13:41;5.00;99.90
41694;DHT22;27377;50.666;9.150;2022-11-23T17:16:15;4.90;99.90
41694;DHT22;27377;50.666;9.150;2022-11-23T17:18:42;4.90;99.90
41694;DHT22;27377;50.666;9.150;2022-11-23T17:21:07;4.90;99.90
41694;DHT22;27377;50.666;9.150;2022-11-23T17:23:33;4.80;99.90
41694;DHT22;27377;50.666;9.150;2022-11-23T17:25:59;4.70;99.90
41694;DHT22;27377;50.666;9.150;2022-11-23T17:28:25;4.70;99.90
41694;DHT22;27377;50.666;9.150;2022-11-23T17:30:52;4.80;99.90
41694;DHT22;27377;50.666;9.150;2022-11-23T17:33:18;4.70;99.90
41694;DHT22;27377;50.666;9.150;2022-11-23T17:35:43;4.70;99.90
41694;DHT22;27377;50.666;9.150;2022-11-23T17:38:14;4.70;99.90
41694;DHT22;27377;50.666;9.150;2022-11-23T17:40:41;4.70;99.90
41694;DHT22;27377;50.666;9.150;2022-11-23T17:43:07;4.70;99.90
41694;DHT22;27377;50.666;9.150;2022-11-23T17:45:36;4.70;99.90
41694;DHT22;27377;50.666;9.150;2022-11-23T17:48:02;4.70;99.90
41694;DHT22;27377;50.666;9.150;2022-11-23T17:50:27;4.70;99.90
41694;DHT22;27377;50.666;9.150;2022-11-23T17:52:53;4.60;99.90
41694;DHT22;27377;50.666;9.150;2022-11-23T17:55:18;4.60;99.90
41694;DHT22;27377;50.666;9.150;2022-11-23T17:57:44;4.50;99.90
41694;DHT22;27377;50.666;9.150;2022-11-23T18:00:18;4.50;99.90
41694;DHT22;27377;50.666;9.150;2022-11-23T18:02:44;4.60;99.90
41694;DHT22;27377;50.666;9.150;2022-11-23T18:05:10;4.50;99.90